createdAt,value
2019-05-09T00:01:43.900Z,90.67
2019-05-09T00:04:13.898Z,91.27
2019-05-09T00:06:43.598Z,90.60
2019-05-09T00:09:13.745Z,89.37
2019-05-09T00:11:43.898Z,89.70
2019-05-09T00:14:13.581Z,91.03
2019-05-09T00:16:43.913Z,90.13
2019-05-09T00:19:13.551Z,92.10
2019-05-09T00:21:46.357Z,90.80
2019-05-09T00:24:14.838Z,91.37
2019-05-09T00:26:44.289Z,90.57
2019-05-09T00:29:14.432Z,89.93
2019-05-09T00:31:47.589Z,90.67
2019-05-09T00:34:26.654Z,90.77
2019-05-09T00:36:55.375Z,92.00
2019-05-09T00:39:23.874Z,91.10
2019-05-09T00:41:53.874Z,89.80
2019-05-09T00:44:29.663Z,89.40
2019-05-09T00:47:04.262Z,89.67
2019-05-09T00:49:34.154Z,90.97
2019-05-09T00:52:03.544Z,88.90
2019-05-09T00:54:33.511Z,90.97
2019-05-09T00:57:03.175Z,89.00
2019-05-09T00:59:33.238Z,92.33
2019-05-09T01:02:03.942Z,90.90
2019-05-09T01:04:33.327Z,90.83
2019-05-09T01:07:03.584Z,88.53
2019-05-09T01:09:33.392Z,90.80
2019-05-09T01:12:04.114Z,91.60
2019-05-09T01:14:33.935Z,91.10
2019-05-09T01:17:04.243Z,89.53
2019-05-09T01:19:33.897Z,89.67
2019-05-09T01:22:03.736Z,92.13
2019-05-09T01:24:33.800Z,90.20
2019-05-09T01:27:03.625Z,90.43
2019-05-09T01:29:33.700Z,90.37
2019-05-09T01:32:04.803Z,89.90
2019-05-09T01:34:34.476Z,90.50
2019-05-09T01:37:07.350Z,90.37
2019-05-09T01:39:36.047Z,91.03
2019-05-09T01:42:04.505Z,90.90
2019-05-09T01:44:33.626Z,90.80
2019-05-09T01:47:03.651Z,90.17
2019-05-09T01:49:34.211Z,90.07
2019-05-09T01:52:03.451Z,90.80
2019-05-09T01:54:33.306Z,91.40
2019-05-09T01:57:03.292Z,89.90
2019-05-09T01:59:33.884Z,87.97
2019-05-09T02:02:08.266Z,89.90
2019-05-09T02:04:33.425Z,90.57
2019-05-09T02:07:04.017Z,90.17
2019-05-09T02:09:34.337Z,91.33
2019-05-09T02:12:03.821Z,90.57
2019-05-09T02:14:40.346Z,91.73
2019-05-09T02:17:23.215Z,90.50
2019-05-09T02:19:53.308Z,90.63
2019-05-09T02:22:34.644Z,89.60
2019-05-09T02:25:06.631Z,89.87
2019-05-09T02:27:35.117Z,88.77
2019-05-09T02:30:06.759Z,90.00
2019-05-09T02:32:36.105Z,92.53
2019-05-09T02:35:07.071Z,91.77
2019-05-09T02:37:38.539Z,91.50
2019-05-09T02:40:09.682Z,91.30
2019-05-09T02:42:39.599Z,92.40
2019-05-09T02:45:08.421Z,91.37
2019-05-09T02:47:38.488Z,90.40
2019-05-09T02:50:09.085Z,92.57
2019-05-09T02:52:39.593Z,91.23
2019-05-09T02:55:10.134Z,90.23
2019-05-09T02:57:38.879Z,89.47
2019-05-09T03:00:25.257Z,91.67
2019-05-09T03:02:55.301Z,92.40
2019-05-09T03:05:23.712Z,89.93
2019-05-09T03:07:52.386Z,90.30
2019-05-09T03:10:22.543Z,90.83
2019-05-09T03:12:51.015Z,91.63
2019-05-09T03:15:19.844Z,90.03
2019-05-09T03:17:49.536Z,89.67
2019-05-09T03:20:39.179Z,90.47
2019-05-09T03:23:09.158Z,92.07
2019-05-09T03:25:40.893Z,90.33
2019-05-09T03:28:18.174Z,89.87
2019-05-09T03:30:50.306Z,91.07
2019-05-09T03:33:20.132Z,89.83
2019-05-09T03:35:48.948Z,90.63
2019-05-09T03:38:17.947Z,90.63
2019-05-09T03:40:47.684Z,91.53
2019-05-09T03:43:18.102Z,89.90
2019-05-09T03:45:58.522Z,90.17
2019-05-09T03:48:44.886Z,90.23
2019-05-09T03:51:13.424Z,92.30
2019-05-09T03:53:41.833Z,90.87
2019-05-09T03:56:12.002Z,91.47
2019-05-09T03:58:40.568Z,90.87
2019-05-09T04:01:10.763Z,91.23
2019-05-09T04:03:39.061Z,90.43
2019-05-09T04:06:08.299Z,94.00
2019-05-09T04:08:37.599Z,92.30
2019-05-09T04:11:08.572Z,90.93
2019-05-09T04:13:38.850Z,89.80
2019-05-09T04:16:07.621Z,91.57
2019-05-09T04:18:37.671Z,90.70
2019-05-09T04:21:08.280Z,90.70
2019-05-09T04:23:37.840Z,94.73
2019-05-09T04:26:11.238Z,89.07
2019-05-09T04:28:40.010Z,89.53
2019-05-09T04:31:08.670Z,89.33
2019-05-09T04:33:38.287Z,92.27
2019-05-09T04:36:08.359Z,89.47
2019-05-09T04:38:39.779Z,92.00
2019-05-09T04:41:07.513Z,91.40
2019-05-09T04:43:39.748Z,90.90
2019-05-09T04:46:08.067Z,91.00
2019-05-09T04:48:37.553Z,91.07
2019-05-09T04:51:07.900Z,92.90
2019-05-09T04:53:37.692Z,91.63
2019-05-09T04:56:10.820Z,91.10
2019-05-09T04:58:39.677Z,92.97
2019-05-09T05:01:25.014Z,93.43
2019-05-09T05:03:57.178Z,93.93
2019-05-09T05:06:25.325Z,93.57
2019-05-09T05:08:53.867Z,91.83
2019-05-09T05:11:23.288Z,93.03
2019-05-09T05:13:51.809Z,92.00
2019-05-09T05:16:20.345Z,92.37
2019-05-09T05:18:48.542Z,90.27
2019-05-09T05:21:19.951Z,92.33
2019-05-09T05:23:48.845Z,92.00
2019-05-09T05:26:18.383Z,94.00
2019-05-09T05:28:47.468Z,92.03
2019-05-09T05:31:18.072Z,91.97
2019-05-09T05:33:51.114Z,92.10
2019-05-09T05:36:19.298Z,93.57
2019-05-09T05:38:48.064Z,94.63
2019-05-09T05:41:18.287Z,94.47
2019-05-09T05:43:47.897Z,93.37
2019-05-09T05:46:30.208Z,95.07
2019-05-09T05:48:58.701Z,91.33
2019-05-09T05:51:27.686Z,93.20
2019-05-09T05:53:57.370Z,92.87
2019-05-09T05:56:27.860Z,95.73
2019-05-09T05:58:57.974Z,96.30
2019-05-09T06:01:27.871Z,97.93
2019-05-09T06:03:58.463Z,94.23
2019-05-09T06:06:27.964Z,94.10
2019-05-09T06:08:57.953Z,91.40
2019-05-09T06:11:28.050Z,92.00
2019-05-09T06:14:05.265Z,92.43
2019-05-09T06:16:28.223Z,94.17
2019-05-09T06:18:58.625Z,92.00
2019-05-09T06:21:28.259Z,93.00
2019-05-09T06:23:58.392Z,94.57
2019-05-09T06:26:29.265Z,105.57
2019-05-09T06:28:57.687Z,96.37
2019-05-09T06:31:28.284Z,99.13
2019-05-09T06:33:57.767Z,96.67
2019-05-09T06:36:28.365Z,98.43
2019-05-09T06:38:58.563Z,95.63
2019-05-09T06:41:28.368Z,95.70
2019-05-09T06:44:11.094Z,93.93
2019-05-09T06:46:32.702Z,93.50
2019-05-09T06:49:20.003Z,97.37
2019-05-09T06:51:32.693Z,93.93
2019-05-09T06:54:01.102Z,96.33
2019-05-09T06:56:29.659Z,101.33
2019-05-09T06:58:58.423Z,96.77
2019-05-09T07:01:31.367Z,96.97
2019-05-09T07:04:10.655Z,95.53
2019-05-09T07:06:49.751Z,96.97
2019-05-09T07:09:22.974Z,97.60
2019-05-09T07:11:51.470Z,96.23
2019-05-09T07:14:32.309Z,147.77
2019-05-09T07:16:58.559Z,102.47
2019-05-09T07:19:28.000Z,101.63
2019-05-09T07:22:09.036Z,97.97
2019-05-09T07:25:00.839Z,101.57
2019-05-09T07:27:28.528Z,98.23
2019-05-09T07:29:58.801Z,100.13
2019-05-09T07:32:45.065Z,97.37
2019-05-09T07:35:13.842Z,102.50
2019-05-09T07:37:42.399Z,101.90
2019-05-09T07:40:10.963Z,96.47
2019-05-09T07:42:39.498Z,97.03
2019-05-09T07:45:08.930Z,95.83
2019-05-09T07:47:38.756Z,100.13
2019-05-09T07:50:09.105Z,98.03
2019-05-09T07:52:38.791Z,97.23
2019-05-09T07:55:08.903Z,100.60
2019-05-09T07:57:45.711Z,95.87
2019-05-09T08:00:07.937Z,95.13
2019-05-09T08:02:38.584Z,92.80
2019-05-09T08:05:08.463Z,96.13
2019-05-09T08:07:38.177Z,96.67
2019-05-09T08:10:09.051Z,98.77
2019-05-09T08:12:38.932Z,101.83
2019-05-09T08:15:16.210Z,98.27
2019-05-09T08:17:38.377Z,97.67
2019-05-09T08:20:07.982Z,101.57
2019-05-09T08:22:42.046Z,98.57
2019-05-09T08:25:08.274Z,94.90
2019-05-09T08:27:37.820Z,98.00
2019-05-09T08:30:09.371Z,95.53
2019-05-09T08:32:38.131Z,95.87
2019-05-09T08:35:08.495Z,97.93
2019-05-09T08:37:39.000Z,95.27
2019-05-09T08:40:08.033Z,99.10
2019-05-09T08:42:37.906Z,97.40
2019-05-09T08:45:17.376Z,97.77
2019-05-09T08:47:38.024Z,96.07
2019-05-09T08:50:17.459Z,96.37
2019-05-09T08:52:45.330Z,97.30
2019-05-09T08:55:13.837Z,100.07
2019-05-09T08:57:42.449Z,98.47
2019-05-09T09:00:11.342Z,98.87
2019-05-09T09:02:39.890Z,101.10
2019-05-09T09:05:08.798Z,102.93
2019-05-09T09:07:38.238Z,97.93
2019-05-09T09:10:08.436Z,97.93
2019-05-09T09:12:38.430Z,97.93
2019-05-09T09:15:07.730Z,97.90
2019-05-09T09:17:38.519Z,99.57
2019-05-09T09:20:07.897Z,100.93
2019-05-09T09:22:37.558Z,98.47
2019-05-09T09:25:07.629Z,100.57
2019-05-09T09:27:38.099Z,96.07
2019-05-09T09:30:17.811Z,96.23
2019-05-09T09:32:38.776Z,99.60
2019-05-09T09:35:09.285Z,99.73
2019-05-09T09:37:48.502Z,101.77
2019-05-09T09:40:09.019Z,106.47
2019-05-09T09:42:39.755Z,104.43
2019-05-09T09:45:07.971Z,102.63
2019-05-09T09:47:39.332Z,103.77
2019-05-09T09:50:08.784Z,104.47
2019-05-09T09:52:38.538Z,111.77
2019-05-09T09:55:10.174Z,109.07
2019-05-09T09:57:38.807Z,111.70
2019-05-09T10:00:18.683Z,103.30
2019-05-09T10:02:48.240Z,100.90
2019-05-09T10:05:18.395Z,105.67
2019-05-09T10:07:47.762Z,103.20
2019-05-09T10:10:33.434Z,104.70
2019-05-09T10:13:04.049Z,103.37
2019-05-09T10:15:35.656Z,135.00
2019-05-09T10:18:08.563Z,103.83
2019-05-09T10:20:50.902Z,98.60
2019-05-09T10:23:21.641Z,104.17
2019-05-09T10:25:49.349Z,101.23
2019-05-09T10:28:21.334Z,101.17
2019-05-09T10:30:48.469Z,99.43
2019-05-09T10:33:17.651Z,107.67
2019-05-09T10:35:47.936Z,106.27
2019-05-09T10:38:18.425Z,101.83
2019-05-09T10:40:48.594Z,108.47
2019-05-09T10:43:38.828Z,108.40
2019-05-09T10:46:23.628Z,120.63
2019-05-09T10:48:53.902Z,112.77
2019-05-09T10:51:22.655Z,113.73
2019-05-09T10:53:51.159Z,111.70
2019-05-09T10:56:19.819Z,113.00
2019-05-09T10:58:48.422Z,113.53
2019-05-09T11:01:18.518Z,103.23
2019-05-09T11:03:48.317Z,102.67
2019-05-09T11:06:18.324Z,99.50
2019-05-09T11:08:47.779Z,103.27
2019-05-09T11:11:18.238Z,107.53
2019-05-09T11:13:48.182Z,103.67
2019-05-09T11:16:18.489Z,101.80
2019-05-09T11:18:48.238Z,104.87
2019-05-09T11:21:19.210Z,105.13
2019-05-09T11:23:48.827Z,107.97
2019-05-09T11:26:18.171Z,18.67
2019-05-09T11:28:46.839Z,26.77
2019-05-09T11:31:18.003Z,33.20
2019-05-09T11:33:48.158Z,48.83
2019-05-09T11:36:20.600Z,77.47
2019-05-09T11:38:49.071Z,102.50
2019-05-09T11:41:19.128Z,95.63
2019-05-09T11:43:48.596Z,88.63
2019-05-09T11:46:18.016Z,80.10
2019-05-09T11:48:46.936Z,88.43
2019-05-09T11:51:17.887Z,70.43
2019-05-09T11:53:48.323Z,68.87
2019-05-09T11:56:17.953Z,76.10
2019-05-09T11:58:48.193Z,63.20
2019-05-09T12:01:19.050Z,72.70
2019-05-09T12:03:49.874Z,79.97
2019-05-09T12:06:19.615Z,79.27
2019-05-09T12:08:48.301Z,53.73
2019-05-09T12:11:18.261Z,66.40
2019-05-09T12:13:48.720Z,35.80
2019-05-09T12:16:18.963Z,19.93
2019-05-09T12:18:48.834Z,28.30
2019-05-09T12:21:19.219Z,19.60
2019-05-09T12:23:49.091Z,16.30
2019-05-09T12:26:18.398Z,18.40
2019-05-09T12:28:48.372Z,50.13
2019-05-09T12:31:18.045Z,21.50
2019-05-09T12:33:48.196Z,16.17
2019-05-09T12:36:19.083Z,32.87
2019-05-09T12:38:49.847Z,53.47
2019-05-09T12:41:19.039Z,95.37
2019-05-09T12:43:47.846Z,64.37
2019-05-09T12:46:16.397Z,48.17
2019-05-09T12:48:45.026Z,16.87
2019-05-09T12:51:13.503Z,36.17
2019-05-09T12:53:42.165Z,21.17
2019-05-09T12:56:10.957Z,74.60
2019-05-09T12:58:39.515Z,82.43
2019-05-09T13:01:08.133Z,80.23
2019-05-09T13:03:38.195Z,73.83
2019-05-09T13:06:08.138Z,50.57
2019-05-09T13:08:38.495Z,27.03
2019-05-09T13:11:08.116Z,62.40
2019-05-09T13:13:40.910Z,47.40
2019-05-09T13:16:14.941Z,50.97
2019-05-09T13:18:54.865Z,48.77
2019-05-09T13:21:23.407Z,49.67
2019-05-09T13:23:52.538Z,65.90
2019-05-09T13:26:21.147Z,71.70
2019-05-09T13:28:49.684Z,68.50
2019-05-09T13:31:18.359Z,99.53
2019-05-09T13:33:48.787Z,94.30
2019-05-09T13:36:18.838Z,92.90
2019-05-09T13:38:57.624Z,78.07
2019-05-09T13:41:17.775Z,77.33
2019-05-09T13:43:56.896Z,87.10
2019-05-09T13:46:17.911Z,97.00
2019-05-09T13:49:05.996Z,106.60
2019-05-09T13:51:18.386Z,100.60
2019-05-09T13:53:48.420Z,103.00
2019-05-09T13:56:17.833Z,87.80
2019-05-09T13:58:48.543Z,74.13
2019-05-09T14:01:17.722Z,90.33
2019-05-09T14:03:48.818Z,102.90
2019-05-09T14:06:16.627Z,101.83
2019-05-09T14:08:45.119Z,105.27
2019-05-09T14:11:13.620Z,112.90
2019-05-09T14:13:42.365Z,105.83
2019-05-09T14:16:19.843Z,126.40
2019-05-09T14:18:42.256Z,124.40
2019-05-09T14:21:13.210Z,126.07
2019-05-09T14:23:51.371Z,99.73
2019-05-09T14:26:11.925Z,99.30
2019-05-09T14:28:40.399Z,102.90
2019-05-09T14:31:09.287Z,103.97
2019-05-09T14:33:38.920Z,101.23
2019-05-09T14:36:08.221Z,102.97
2019-05-09T14:38:39.155Z,103.93
2019-05-09T14:41:07.846Z,105.30
2019-05-09T14:43:39.310Z,106.03
2019-05-09T14:46:08.232Z,105.03
2019-05-09T14:48:36.871Z,107.37
2019-05-09T14:51:07.535Z,107.30
2019-05-09T14:53:35.656Z,106.07
2019-05-09T14:56:08.729Z,107.30
2019-05-09T14:58:38.999Z,108.77
2019-05-09T15:01:13.248Z,106.70
2019-05-09T15:03:41.918Z,105.13
2019-05-09T15:06:10.561Z,106.37
2019-05-09T15:08:39.348Z,104.57
2019-05-09T15:11:10.429Z,108.93
2019-05-09T15:13:39.382Z,108.43
2019-05-09T15:16:12.926Z,106.90
2019-05-09T15:18:44.965Z,107.43
2019-05-09T15:21:19.632Z,106.63
2019-05-09T15:23:48.706Z,105.60
2019-05-09T15:26:17.756Z,104.60
2019-05-09T15:28:50.242Z,103.83
2019-05-09T15:31:20.536Z,105.73
2019-05-09T15:33:50.606Z,109.60
2019-05-09T15:36:25.719Z,108.63
2019-05-09T15:39:00.611Z,106.53
2019-05-09T15:41:29.234Z,106.77
2019-05-09T15:43:59.392Z,107.87
2019-05-09T15:46:34.209Z,106.20
2019-05-09T15:49:02.937Z,110.80
2019-05-09T15:51:32.201Z,108.87
2019-05-09T15:54:00.912Z,106.80
2019-05-09T15:56:29.485Z,107.03
2019-05-09T15:58:59.116Z,108.17
2019-05-09T16:01:27.989Z,108.73
2019-05-09T16:03:56.851Z,109.30
2019-05-09T16:06:32.440Z,108.03
2019-05-09T16:08:58.380Z,107.77
2019-05-09T16:11:27.951Z,110.40
2019-05-09T16:13:56.180Z,107.73
2019-05-09T16:16:24.940Z,111.53
2019-05-09T16:18:53.635Z,107.70
2019-05-09T16:21:24.128Z,109.43
2019-05-09T16:23:52.879Z,109.73
2019-05-09T16:26:21.574Z,109.93
2019-05-09T16:28:51.165Z,110.17
2019-05-09T16:31:19.873Z,110.10
2019-05-09T16:33:48.439Z,108.80
2019-05-09T16:36:17.528Z,109.43
2019-05-09T16:38:48.968Z,108.80
2019-05-09T16:41:18.576Z,108.20
2019-05-09T16:43:47.897Z,107.67
2019-05-09T16:46:18.105Z,109.37
2019-05-09T16:48:47.508Z,110.33
2019-05-09T16:51:18.220Z,107.10
2019-05-09T16:53:49.520Z,110.90
2019-05-09T16:56:18.036Z,108.37
2019-05-09T16:58:51.240Z,109.97
2019-05-09T17:01:19.861Z,110.03
2019-05-09T17:03:48.370Z,109.57
2019-05-09T17:06:18.393Z,111.77
2019-05-09T17:08:47.627Z,107.90
2019-05-09T17:11:19.203Z,110.17
2019-05-09T17:13:47.347Z,109.33
2019-05-09T17:16:17.749Z,110.00
2019-05-09T17:18:48.471Z,111.50
2019-05-09T17:21:34.765Z,110.17
2019-05-09T17:24:08.203Z,113.43
2019-05-09T17:26:40.787Z,111.20
2019-05-09T17:29:11.238Z,100.73
2019-05-09T17:31:40.224Z,122.67
2019-05-09T17:34:08.939Z,114.37
2019-05-09T17:36:40.087Z,111.93
2019-05-09T17:39:08.760Z,98.67
2019-05-09T17:41:37.935Z,96.17
2019-05-09T17:44:07.812Z,71.53
2019-05-09T17:46:38.474Z,77.87
2019-05-09T17:49:08.443Z,116.53
2019-05-09T17:51:37.188Z,19.93
2019-05-09T17:54:08.142Z,19.70
2019-05-09T17:56:48.389Z,20.03
2019-05-09T17:59:22.367Z,20.53
2019-05-09T18:01:52.693Z,21.07
2019-05-09T18:04:23.834Z,22.43
2019-05-09T18:06:52.944Z,22.13
2019-05-09T18:09:21.670Z,23.17
2019-05-09T18:11:50.329Z,21.07
2019-05-09T18:14:19.272Z,22.77
2019-05-09T18:16:48.053Z,80.63
2019-05-09T18:19:17.816Z,24.30
2019-05-09T18:21:50.915Z,21.53
2019-05-09T18:24:17.976Z,22.70
2019-05-09T18:26:47.449Z,23.40
2019-05-09T18:29:17.974Z,21.57
2019-05-09T18:31:48.347Z,23.07
2019-05-09T18:34:18.557Z,22.23
2019-05-09T18:36:48.385Z,22.00
2019-05-09T18:39:18.577Z,22.60
2019-05-09T18:41:48.364Z,23.63
2019-05-09T18:44:18.282Z,22.43
2019-05-09T18:46:48.146Z,25.27
2019-05-09T18:49:16.938Z,23.90
2019-05-09T18:51:45.599Z,24.67
2019-05-09T18:54:14.260Z,27.17
2019-05-09T18:56:42.928Z,28.43
2019-05-09T18:59:11.511Z,25.57
2019-05-09T19:01:40.595Z,26.33
2019-05-09T19:04:09.290Z,25.57
2019-05-09T19:06:39.964Z,25.90
2019-05-09T19:09:09.054Z,27.23
2019-05-09T19:11:37.956Z,25.50
2019-05-09T19:14:08.028Z,27.47
2019-05-09T19:16:41.172Z,28.17
2019-05-09T19:19:14.639Z,36.83
2019-05-09T19:21:51.076Z,50.57
2019-05-09T19:24:20.976Z,64.70
2019-05-09T19:26:49.966Z,53.33
2019-05-09T19:29:19.047Z,76.57
2019-05-09T19:31:48.012Z,74.57
2019-05-09T19:34:16.771Z,62.10
2019-05-09T19:36:45.593Z,70.33
2019-05-09T19:39:14.285Z,88.33
2019-05-09T19:41:43.027Z,72.63
2019-05-09T19:44:12.043Z,75.27
2019-05-09T19:46:40.735Z,77.60
2019-05-09T19:49:09.448Z,70.93
2019-05-09T19:51:38.183Z,65.70
2019-05-09T19:54:06.969Z,49.87
2019-05-09T19:56:35.666Z,42.00
2019-05-09T19:59:07.506Z,54.70
2019-05-09T20:01:35.109Z,67.23
2019-05-09T20:04:05.420Z,78.00
2019-05-09T20:06:34.275Z,80.00
2019-05-09T20:09:04.616Z,90.87
2019-05-09T20:11:50.347Z,82.90
2019-05-09T20:14:26.482Z,88.27
2019-05-09T20:16:56.946Z,92.63
2019-05-09T20:19:27.994Z,98.10
2019-05-09T20:21:56.627Z,100.43
2019-05-09T20:24:26.409Z,90.10
2019-05-09T20:26:55.101Z,88.80
2019-05-09T20:29:23.782Z,87.27
2019-05-09T20:31:52.485Z,87.80
2019-05-09T20:34:21.183Z,91.47
2019-05-09T20:36:49.885Z,81.70
2019-05-09T20:39:18.680Z,68.83
2019-05-09T20:41:47.504Z,65.30
2019-05-09T20:44:16.365Z,55.97
2019-05-09T20:46:45.222Z,50.00
2019-05-09T20:49:14.023Z,62.33
2019-05-09T20:51:42.865Z,55.67
2019-05-09T20:54:20.563Z,64.30
2019-05-09T20:56:42.183Z,62.07
2019-05-09T20:59:10.967Z,57.17
2019-05-09T21:01:39.733Z,65.27
2019-05-09T21:04:08.494Z,71.60
2019-05-09T21:06:37.408Z,67.40
2019-05-09T21:09:06.745Z,80.33
2019-05-09T21:11:35.904Z,67.17
2019-05-09T21:14:05.147Z,62.57
2019-05-09T21:16:33.854Z,46.77
2019-05-09T21:19:02.709Z,45.23
2019-05-09T21:21:31.543Z,55.73
2019-05-09T21:24:00.298Z,41.90
2019-05-09T21:26:30.032Z,36.17
2019-05-09T21:28:58.885Z,33.43
2019-05-09T21:31:27.734Z,34.33
2019-05-09T21:33:56.946Z,33.57
2019-05-09T21:36:25.502Z,35.90
2019-05-09T21:38:54.004Z,37.07
2019-05-09T21:41:22.622Z,35.63
2019-05-09T21:43:51.264Z,37.17
2019-05-09T21:46:19.910Z,33.53
2019-05-09T21:48:48.609Z,35.37
2019-05-09T21:51:17.269Z,34.53
2019-05-09T21:53:45.801Z,29.30
2019-05-09T21:56:14.429Z,34.73
2019-05-09T21:58:42.993Z,35.07
2019-05-09T22:01:12.316Z,39.03
2019-05-09T22:03:40.790Z,69.20
2019-05-09T22:06:09.354Z,55.53
2019-05-09T22:08:37.906Z,63.50
2019-05-09T22:11:06.453Z,48.77
2019-05-09T22:13:34.947Z,48.43
2019-05-09T22:16:03.589Z,43.70
2019-05-09T22:18:32.154Z,37.37
2019-05-09T22:21:00.569Z,35.40
2019-05-09T22:23:29.049Z,35.60
2019-05-09T22:25:57.526Z,34.90
2019-05-09T22:28:27.021Z,36.07
2019-05-09T22:30:55.543Z,36.17
2019-05-09T22:33:24.146Z,35.30
2019-05-09T22:35:52.612Z,35.60
2019-05-09T22:38:21.157Z,39.30
2019-05-09T22:40:49.634Z,38.63
2019-05-09T22:43:18.118Z,36.90
2019-05-09T22:45:46.748Z,37.13
2019-05-09T22:48:15.286Z,35.13
2019-05-09T22:50:43.765Z,37.23
2019-05-09T22:53:12.236Z,36.47
2019-05-09T22:55:40.719Z,36.20
2019-05-09T22:58:09.225Z,38.97
2019-05-09T23:00:37.825Z,36.67
2019-05-09T23:03:06.309Z,35.27
2019-05-09T23:05:34.796Z,35.70
2019-05-09T23:08:03.419Z,34.20
2019-05-09T23:10:31.915Z,34.10
2019-05-09T23:13:00.524Z,33.80
2019-05-09T23:15:28.990Z,33.80
2019-05-09T23:17:57.894Z,32.50
2019-05-09T23:20:27.963Z,31.43
2019-05-09T23:22:56.482Z,35.53
2019-05-09T23:25:24.970Z,37.27
2019-05-09T23:27:53.451Z,35.23
2019-05-09T23:30:23.830Z,33.77
2019-05-09T23:32:52.720Z,33.33
2019-05-09T23:35:21.270Z,33.20
2019-05-09T23:37:50.194Z,30.67
2019-05-09T23:40:18.669Z,30.77
2019-05-09T23:42:47.221Z,31.43
2019-05-09T23:45:15.793Z,30.27
2019-05-09T23:47:44.342Z,29.90
2019-05-09T23:50:12.961Z,30.13
2019-05-09T23:52:41.542Z,29.13
2019-05-09T23:55:27.908Z,30.23
2019-05-09T23:58:14.406Z,57.50
